Time,TemperatureF,DewpointF,PressureIn,WindDirection,WindDirectionDegrees,WindSpeedMPH,WindSpeedGustMPH,Humidity,HourlyPrecipIn,Conditions,Clouds,dailyrainin,SoftwareType,DateUTC
2013-02-06 00:00:00,26.1,20.1,29.89,SW,225,3.5,3.5,78,0.00,CLR,,0.00,WeatherDisplay:10.37,2013-02-06 05:00:00,
2013-02-06 00:05:00,26.1,20.1,29.89,SSW,202,1.1,2.1,78,0.00,CLR,,0.00,WeatherDisplay:10.37,2013-02-06 05:05:00,
2013-02-06 00:10:00,26.1,20.1,29.89,SSE,158,3.5,3.5,78,0.00,CLR,,0.00,WeatherDisplay:10.37,2013-02-06 05:10:00,
2013-02-06 00:15:00,26.1,20.4,29.89,South,180,3.5,3.5,79,0.00,CLR,,0.00,WeatherDisplay:10.37,2013-02-06 05:15:00,
2013-02-06 00:20:00,26.1,20.1,29.89,NW,315,3.5,3.5,78,0.00,CLR,,0.00,WeatherDisplay:10.37,2013-02-06 05:20:00,
2013-02-06 00:25:00,26.2,20.6,29.89,South,180,3.5,3.5,79,0.00,CLR,,0.00,WeatherDisplay:10.37,2013-02-06 05:25:00,
2013-02-06 00:30:00,26.2,20.3,29.89,SW,225,3.5,3.5,78,0.00,CLR,,0.00,WeatherDisplay:10.37,2013-02-06 05:30:00,
2013-02-06 00:35:00,26.2,20.3,29.89,SW,225,6.9,6.9,78,0.00,CLR,,0.00,WeatherDisplay:10.37,2013-02-06 05:35:00,
2013-02-06 00:40:00,26.2,20.3,29.89,WSW,248,5.8,5.8,78,0.00,CLR,,0.00,WeatherDisplay:10.37,2013-02-06 05:40:00,
2013-02-06 00:45:00,26.2,20.3,29.89,ESE,112,3.7,3.7,78,0.00,CLR,,0.00,WeatherDisplay:10.37,2013-02-06 05:45:00,
2013-02-06 00:50:00,26.2,20.3,29.89,SW,225,5.8,5.8,78,0.00,CLR,,0.00,WeatherDisplay:10.37,2013-02-06 05:50:00,
2013-02-06 00:55:00,26.2,20.3,29.89,WNW,292,3.5,3.5,78,0.00,CLR,,0.00,WeatherDisplay:10.37,2013-02-06 05:55:00,
2013-02-06 01:00:00,26.2,20.3,29.89,West,270,3.5,3.5,78,0.00,CLR,,0.00,WeatherDisplay:10.37,2013-02-06 06:00:00,
2013-02-06 01:05:00,26.2,20.3,29.89,WSW,248,6.9,6.9,78,0.00,CLR,,0.00,WeatherDisplay:10.37,2013-02-06 06:05:00,
2013-02-06 01:10:00,26.2,20.3,29.89,SW,225,4.6,4.6,78,0.00,CLR,,0.00,WeatherDisplay:10.37,2013-02-06 06:10:00,
2013-02-06 01:15:00,26.2,20.3,29.89,NW,315,3.5,3.5,78,0.00,CLR,,0.00,WeatherDisplay:10.37,2013-02-06 06:15:00,
2013-02-06 01:20:00,26.2,20.6,29.90,SW,225,8.1,8.1,79,0.00,CLR,,0.00,WeatherDisplay:10.37,2013-02-06 06:20:00,
2013-02-06 01:25:00,26.4,20.8,29.90,NE,45,4.6,4.6,79,0.00,CLR,,0.00,WeatherDisplay:10.37,2013-02-06 06:25:00,
2013-02-06 01:30:00,26.4,20.8,29.90,WSW,248,3.5,3.5,79,0.00,CLR,,0.00,WeatherDisplay:10.37,2013-02-06 06:30:00,
2013-02-06 01:35:00,26.4,20.8,29.90,SW,225,8.1,8.1,79,0.00,CLR,,0.00,WeatherDisplay:10.37,2013-02-06 06:35:00,
2013-02-06 01:40:00,26.4,20.8,29.90,South,180,2.3,2.3,79,0.00,CLR,,0.00,WeatherDisplay:10.37,2013-02-06 06:40:00,
2013-02-06 01:45:00,26.4,20.8,29.90,WSW,248,4.6,4.6,79,0.00,CLR,,0.00,WeatherDisplay:10.37,2013-02-06 06:45:00,
2013-02-06 01:50:00,26.6,21.0,29.90,WSW,248,5.8,5.8,79,0.00,CLR,,0.00,WeatherDisplay:10.37,2013-02-06 06:50:00,
2013-02-06 01:55:00,26.4,20.8,29.90,WNW,292,6.9,6.9,79,0.00,CLR,,0.00,WeatherDisplay:10.37,2013-02-06 06:55:00,
2013-02-06 02:00:00,26.4,20.8,29.89,SW,225,3.5,3.5,79,0.00,CLR,,0.00,WeatherDisplay:10.37,2013-02-06 07:00:00,
2013-02-06 02:05:00,26.4,20.8,29.89,NNE,22,3.5,3.5,79,0.00,CLR,,0.00,WeatherDisplay:10.37,2013-02-06 07:05:00,
2013-02-06 02:10:00,26.6,21.0,29.89,WSW,248,3.5,3.5,79,0.00,CLR,,0.00,WeatherDisplay:10.37,2013-02-06 07:10:00,
2013-02-06 02:15:00,26.6,21.0,29.89,WSW,248,3.5,3.5,79,0.00,CLR,,0.00,WeatherDisplay:10.37,2013-02-06 07:15:00,
2013-02-06 02:21:00,26.8,21.1,29.91,WSW,248,9.2,9.2,79,0.00,CLR,,0.00,WeatherDisplay:10.37,2013-02-06 07:21:00,
2013-02-06 02:26:00,27.3,22.0,29.91,WSW,248,10.4,10.4,80,0.00,CLR,,0.00,WeatherDisplay:10.37,2013-02-06 07:26:00,
2013-02-06 02:31:00,27.7,22.0,29.91,West,270,11.5,11.5,79,0.00,CLR,,0.00,WeatherDisplay:10.37,2013-02-06 07:31:00,
2013-02-06 02:36:00,27.7,22.0,29.91,West,270,11.5,11.5,79,0.00,CLR,,0.00,WeatherDisplay:10.37,2013-02-06 07:36:00,
2013-02-06 02:41:00,27.9,22.2,29.93,West,270,9.2,9.2,79,0.00,CLR,,0.00,WeatherDisplay:10.37,2013-02-06 07:41:00,
2013-02-06 02:46:00,27.7,22.3,29.93,SW,225,6.9,6.9,80,0.00,CLR,,0.00,WeatherDisplay:10.37,2013-02-06 07:46:00,
2013-02-06 02:51:00,27.7,22.0,29.93,West,270,13.0,13.0,79,0.00,CLR,,0.00,WeatherDisplay:10.37,2013-02-06 07:51:00,
2013-02-06 02:56:00,27.7,22.0,29.93,WSW,248,9.2,9.2,79,0.00,CLR,,0.00,WeatherDisplay:10.37,2013-02-06 07:56:00,
2013-02-06 03:01:00,27.7,21.7,29.92,West,270,11.5,11.5,78,0.00,CLR,,0.00,WeatherDisplay:10.37,2013-02-06 08:01:00,
2013-02-06 03:06:00,27.7,21.7,29.92,West,270,10.4,10.4,78,0.00,CLR,,0.00,WeatherDisplay:10.37,2013-02-06 08:06:00,
2013-02-06 03:11:00,27.7,21.7,29.92,SW,225,6.2,6.2,78,0.00,CLR,,0.00,WeatherDisplay:10.37,2013-02-06 08:11:00,
2013-02-06 03:16:00,27.7,21.7,29.92,WSW,248,4.6,4.6,78,0.00,CLR,,0.00,WeatherDisplay:10.37,2013-02-06 08:16:00,
2013-02-06 03:21:00,27.7,21.7,29.93,West,270,3.5,3.5,78,0.00,CLR,,0.00,WeatherDisplay:10.37,2013-02-06 08:21:00,
2013-02-06 03:26:00,27.7,21.7,29.93,WSW,248,11.5,11.5,78,0.00,CLR,,0.00,WeatherDisplay:10.37,2013-02-06 08:26:00,
2013-02-06 03:31:00,27.7,21.7,29.93,West,270,11.5,11.5,78,0.00,CLR,,0.00,WeatherDisplay:10.37,2013-02-06 08:31:00,
2013-02-06 03:36:00,27.7,21.7,29.93,WNW,292,4.6,4.6,78,0.00,CLR,,0.00,WeatherDisplay:10.37,2013-02-06 08:36:00,
2013-02-06 03:41:00,27.7,21.7,29.93,West,270,11.8,11.8,78,0.00,CLR,,0.00,WeatherDisplay:10.37,2013-02-06 08:41:00,
2013-02-06 03:46:00,27.7,21.7,29.93,WSW,248,5.8,5.8,78,0.00,CLR,,0.00,WeatherDisplay:10.37,2013-02-06 08:46:00,
2013-02-06 03:51:00,27.7,21.7,29.93,West,270,11.5,11.5,78,0.00,CLR,,0.00,WeatherDisplay:10.37,2013-02-06 08:51:00,
2013-02-06 03:56:00,27.7,21.7,29.93,WNW,292,8.1,8.1,78,0.00,CLR,,0.00,WeatherDisplay:10.37,2013-02-06 08:56:00,
2013-02-06 04:01:00,27.7,21.7,29.93,WSW,248,11.5,11.5,78,0.00,CLR,,0.00,WeatherDisplay:10.37,2013-02-06 09:01:00,
2013-02-06 04:06:00,27.7,21.7,29.93,WNW,292,5.8,5.8,78,0.00,CLR,,0.00,WeatherDisplay:10.37,2013-02-06 09:06:00,
2013-02-06 04:11:00,27.9,21.9,29.93,West,270,13.8,13.8,78,0.00,CLR,,0.00,WeatherDisplay:10.37,2013-02-06 09:11:00,
2013-02-06 04:16:00,27.7,21.7,29.93,SW,225,3.7,5.4,78,0.00,CLR,,0.00,WeatherDisplay:10.37,2013-02-06 09:16:00,
2013-02-06 04:21:00,27.7,21.7,29.95,North,0,8.1,8.1,78,0.00,CLR,,0.00,WeatherDisplay:10.37,2013-02-06 09:21:00,
2013-02-06 04:26:00,27.7,21.7,29.95,West,270,5.8,5.8,78,0.00,CLR,,0.00,WeatherDisplay:10.37,2013-02-06 09:26:00,
2013-02-06 04:31:00,27.7,21.7,29.95,WSW,248,11.5,11.5,78,0.00,CLR,,0.00,WeatherDisplay:10.37,2013-02-06 09:31:00,
2013-02-06 04:36:00,27.5,21.5,29.95,WSW,248,6.9,6.9,78,0.00,CLR,,0.00,WeatherDisplay:10.37,2013-02-06 09:36:00,
2013-02-06 04:41:00,27.5,21.5,29.97,North,0,3.5,4.6,78,0.00,CLR,,0.00,WeatherDisplay:10.37,2013-02-06 09:41:00,
2013-02-06 04:46:00,27.3,21.4,29.97,NW,315,4.6,4.6,78,0.00,CLR,,0.00,WeatherDisplay:10.37,2013-02-06 09:46:00,
2013-02-06 04:51:00,27.3,21.4,29.97,NW,315,5.8,5.8,78,0.00,CLR,,0.00,WeatherDisplay:10.37,2013-02-06 09:51:00,
2013-02-06 04:56:00,27.3,21.4,29.97,WSW,248,8.1,8.1,78,0.00,CLR,,0.00,WeatherDisplay:10.37,2013-02-06 09:56:00,
2013-02-06 05:01:00,27.3,21.4,29.98,WNW,292,5.8,5.8,78,0.00,CLR,,0.00,WeatherDisplay:10.37,2013-02-06 10:01:00,
2013-02-06 05:06:00,27.3,21.1,29.98,WSW,248,6.9,6.9,77,0.00,CLR,,0.00,WeatherDisplay:10.37,2013-02-06 10:06:00,
2013-02-06 05:11:00,27.3,21.1,29.98,West,270,8.3,8.3,77,0.00,CLR,,0.00,WeatherDisplay:10.37,2013-02-06 10:11:00,
2013-02-06 05:16:00,27.1,20.9,29.98,West,270,8.1,8.1,77,0.00,CLR,,0.00,WeatherDisplay:10.37,2013-02-06 10:16:00,
2013-02-06 05:21:00,27.1,20.9,29.99,WSW,248,9.2,9.2,77,0.00,CLR,,0.00,WeatherDisplay:10.37,2013-02-06 10:21:00,
2013-02-06 05:26:00,27.1,20.9,29.99,WSW,248,5.8,5.8,77,0.00,CLR,,0.00,WeatherDisplay:10.37,2013-02-06 10:26:00,
2013-02-06 05:31:00,27.0,20.7,29.99,ENE,68,6.9,6.9,77,0.00,CLR,,0.00,WeatherDisplay:10.37,2013-02-06 10:31:00,
2013-02-06 05:36:00,27.0,20.7,29.99,West,270,6.9,6.9,77,0.00,CLR,,0.00,WeatherDisplay:10.37,2013-02-06 10:36:00,
2013-02-06 05:41:00,27.0,20.7,30.00,SSW,202,15.0,15.0,77,0.00,CLR,,0.00,WeatherDisplay:10.37,2013-02-06 10:41:00,
2013-02-06 05:46:00,27.0,20.4,30.00,NNW,338,6.9,6.9,76,0.00,CLR,,0.00,WeatherDisplay:10.37,2013-02-06 10:46:00,
2013-02-06 05:51:00,26.8,20.2,30.00,NNW,338,6.9,6.9,76,0.00,CLR,,0.00,WeatherDisplay:10.37,2013-02-06 10:51:00,
2013-02-06 05:56:00,26.8,20.2,30.00,West,270,3.5,4.1,76,0.00,CLR,,0.00,WeatherDisplay:10.37,2013-02-06 10:56:00,
2013-02-06 06:01:00,26.8,20.2,30.00,NW,315,8.1,8.1,76,0.00,CLR,,0.00,WeatherDisplay:10.37,2013-02-06 11:01:00,
2013-02-06 06:06:00,26.8,20.2,30.00,West,270,8.1,8.1,76,0.00,CLR,,0.00,WeatherDisplay:10.37,2013-02-06 11:06:00,
2013-02-06 06:11:00,26.6,19.7,30.00,WSW,248,4.6,4.6,75,0.00,CLR,,0.00,WeatherDisplay:10.37,2013-02-06 11:11:00,
2013-02-06 06:16:00,26.6,19.7,30.00,NW,315,6.9,6.9,75,0.00,CLR,,0.00,WeatherDisplay:10.37,2013-02-06 11:16:00,
2013-02-06 06:21:00,26.4,19.6,30.02,SSW,202,7.5,7.5,75,0.00,CLR,,0.00,WeatherDisplay:10.37,2013-02-06 11:21:00,
2013-02-06 06:26:00,26.2,19.4,30.02,WSW,248,6.9,6.9,75,0.00,CLR,,0.00,WeatherDisplay:10.37,2013-02-06 11:26:00,
2013-02-06 06:31:00,26.1,18.9,30.02,WSW,248,6.9,6.9,74,0.00,CLR,,0.00,WeatherDisplay:10.37,2013-02-06 11:31:00,
2013-02-06 06:36:00,25.9,18.7,30.02,West,270,12.7,12.7,74,0.00,CLR,,0.00,WeatherDisplay:10.37,2013-02-06 11:36:00,
2013-02-06 06:41:00,25.5,18.7,30.03,WSW,248,11.5,11.5,75,0.00,CLR,,0.00,WeatherDisplay:10.37,2013-02-06 11:41:00,
2013-02-06 06:46:00,25.5,18.7,30.03,WSW,248,8.1,8.1,75,0.00,CLR,,0.00,WeatherDisplay:10.37,2013-02-06 11:46:00,
2013-02-06 06:51:00,25.5,18.4,30.03,West,270,5.8,5.8,74,0.00,CLR,,0.00,WeatherDisplay:10.37,2013-02-06 11:51:00,
2013-02-06 06:56:00,25.3,18.2,30.03,West,270,8.1,8.1,74,0.00,CLR,,0.00,WeatherDisplay:10.37,2013-02-06 11:56:00,
2013-02-06 07:01:00,25.2,18.0,30.06,WSW,248,4.6,4.6,74,0.00,CLR,,0.00,WeatherDisplay:10.37,2013-02-06 12:01:00,
2013-02-06 07:06:00,25.0,17.9,30.06,WSW,248,4.6,4.6,74,0.00,CLR,,0.00,WeatherDisplay:10.37,2013-02-06 12:06:00,
2013-02-06 07:11:00,25.0,17.9,30.06,NW,315,5.8,5.8,74,0.00,CLR,,0.00,WeatherDisplay:10.37,2013-02-06 12:11:00,
2013-02-06 07:16:00,25.0,17.9,30.07,SW,225,8.6,8.6,74,0.00,CLR,,0.00,WeatherDisplay:10.37,2013-02-06 12:16:00,
2013-02-06 07:21:00,24.8,17.7,30.07,WSW,248,5.8,5.8,74,0.00,CLR,,0.00,WeatherDisplay:10.37,2013-02-06 12:21:00,
2013-02-06 07:26:00,24.6,17.5,30.07,WSW,248,6.9,6.9,74,0.00,CLR,,0.00,WeatherDisplay:10.37,2013-02-06 12:26:00,
2013-02-06 07:31:00,24.4,17.3,30.07,NW,315,6.9,6.9,74,0.00,CLR,,0.00,WeatherDisplay:10.37,2013-02-06 12:31:00,
2013-02-06 07:37:00,24.1,17.0,30.09,West,270,6.9,6.9,74,0.00,CLR,,0.00,WeatherDisplay:10.37,2013-02-06 12:37:00,
2013-02-06 07:42:00,24.1,17.0,30.09,WSW,248,4.6,4.6,74,0.00,CLR,,0.00,WeatherDisplay:10.37,2013-02-06 12:42:00,
2013-02-06 07:47:00,23.9,16.8,30.09,WNW,292,9.2,9.2,74,0.00,CLR,,0.00,WeatherDisplay:10.37,2013-02-06 12:47:00,
2013-02-06 07:52:00,23.9,16.8,30.09,NE,45,5.8,5.8,74,0.00,CLR,,0.00,WeatherDisplay:10.37,2013-02-06 12:52:00,
2013-02-06 07:57:00,23.9,16.8,30.11,WSW,248,9.2,9.2,74,0.00,CLR,,0.00,WeatherDisplay:10.37,2013-02-06 12:57:00,
2013-02-06 08:02:00,23.9,16.5,30.11,WSW,248,8.1,8.1,73,0.00,CLR,,0.00,WeatherDisplay:10.37,2013-02-06 13:02:00,
2013-02-06 08:07:00,24.1,16.7,30.11,WSW,248,8.1,8.1,73,0.00,CLR,,0.00,WeatherDisplay:10.37,2013-02-06 13:07:00,
2013-02-06 08:12:00,24.1,16.7,30.11,NNW,338,5.8,5.8,73,0.00,CLR,,0.00,WeatherDisplay:10.37,2013-02-06 13:12:00,
2013-02-06 08:17:00,24.1,16.7,30.12,WSW,248,5.1,5.1,73,0.00,CLR,,0.00,WeatherDisplay:10.37,2013-02-06 13:17:00,
2013-02-06 08:22:00,24.1,16.7,30.12,West,270,9.2,9.2,73,0.00,CLR,,0.00,WeatherDisplay:10.37,2013-02-06 13:22:00,
2013-02-06 08:27:00,24.3,16.5,30.12,West,270,11.5,11.5,72,0.00,CLR,,0.00,WeatherDisplay:10.37,2013-02-06 13:27:00,
2013-02-06 08:32:00,24.3,16.8,30.12,SW,225,8.1,8.1,73,0.00,CLR,,0.00,WeatherDisplay:10.37,2013-02-06 13:32:00,
2013-02-06 08:37:00,24.4,16.7,30.14,SSW,202,4.9,4.9,72,0.00,CLR,,0.00,WeatherDisplay:10.37,2013-02-06 13:37:00,
2013-02-06 08:42:00,24.4,16.7,30.14,NNW,338,4.6,4.6,72,0.00,CLR,,0.00,WeatherDisplay:10.37,2013-02-06 13:42:00,
2013-02-06 08:47:00,24.6,16.9,30.14,WSW,248,6.9,6.9,72,0.00,CLR,,0.00,WeatherDisplay:10.37,2013-02-06 13:47:00,
2013-02-06 08:52:00,24.8,17.1,30.14,WNW,292,5.8,5.8,72,0.00,CLR,,0.00,WeatherDisplay:10.37,2013-02-06 13:52:00,
2013-02-06 08:57:00,24.8,16.7,30.14,WSW,248,12.7,12.7,71,0.00,CLR,,0.00,WeatherDisplay:10.37,2013-02-06 13:57:00,
2013-02-06 09:02:00,25.0,16.9,30.14,SW,225,8.1,8.1,71,0.00,CLR,,0.00,WeatherDisplay:10.37,2013-02-06 14:02:00,
2013-02-06 09:07:00,25.2,17.1,30.14,NNE,22,4.6,4.6,71,0.00,CLR,,0.00,WeatherDisplay:10.37,2013-02-06 14:07:00,
2013-02-06 09:12:00,25.3,17.2,30.14,NNW,338,3.5,3.9,71,0.00,CLR,,0.00,WeatherDisplay:10.37,2013-02-06 14:12:00,
2013-02-06 09:17:00,25.5,17.1,30.14,NNE,22,6.9,6.9,70,0.00,CLR,,0.00,WeatherDisplay:10.37,2013-02-06 14:17:00,
2013-02-06 09:22:00,26.1,17.3,30.14,WNW,292,3.5,3.8,69,0.00,CLR,,0.00,WeatherDisplay:10.37,2013-02-06 14:22:00,
2013-02-06 09:27:00,27.0,17.8,30.14,WNW,292,7.0,7.0,68,0.00,CLR,,0.00,WeatherDisplay:10.37,2013-02-06 14:27:00,
2013-02-06 09:32:00,27.5,17.6,30.14,WSW,248,7.2,7.2,66,0.00,CLR,,0.00,WeatherDisplay:10.37,2013-02-06 14:32:00,
2013-02-06 09:37:00,28.2,18.0,30.14,WSW,248,9.2,9.2,65,0.00,CLR,,0.00,WeatherDisplay:10.37,2013-02-06 14:37:00,
2013-02-06 09:42:00,28.8,18.1,30.14,West,270,8.1,8.1,64,0.00,CLR,,0.00,WeatherDisplay:10.37,2013-02-06 14:42:00,
2013-02-06 09:47:00,29.1,18.1,30.14,West,270,6.9,6.9,63,0.00,CLR,,0.00,WeatherDisplay:10.37,2013-02-06 14:47:00,
2013-02-06 09:52:00,29.5,18.1,30.14,West,270,4.6,4.6,62,0.00,CLR,,0.00,WeatherDisplay:10.37,2013-02-06 14:52:00,
2013-02-06 09:57:00,29.8,17.6,30.16,WSW,248,11.5,11.5,60,0.00,CLR,,0.00,WeatherDisplay:10.37,2013-02-06 14:57:00,
2013-02-06 10:02:00,29.8,17.6,30.16,South,180,8.1,8.1,60,0.00,CLR,,0.00,WeatherDisplay:10.37,2013-02-06 15:02:00,
2013-02-06 10:07:00,30.2,18.0,30.16,NNW,338,6.9,6.9,60,0.00,CLR,,0.00,WeatherDisplay:10.37,2013-02-06 15:07:00,
2013-02-06 10:12:00,29.7,17.1,30.16,NNW,338,9.2,9.2,59,0.00,CLR,,0.00,WeatherDisplay:10.37,2013-02-06 15:12:00,
2013-02-06 10:17:00,29.8,17.6,30.17,WSW,248,12.7,12.7,60,0.00,CLR,,0.00,WeatherDisplay:10.37,2013-02-06 15:17:00,
2013-02-06 10:22:00,29.5,17.7,30.17,WSW,248,8.4,8.4,61,0.00,CLR,,0.00,WeatherDisplay:10.37,2013-02-06 15:22:00,
2013-02-06 10:27:00,29.7,17.8,30.17,North,0,6.9,6.9,61,0.00,CLR,,0.00,WeatherDisplay:10.37,2013-02-06 15:27:00,
2013-02-06 10:32:00,29.3,17.1,30.17,West,270,8.1,8.1,60,0.00,CLR,,0.00,WeatherDisplay:10.37,2013-02-06 15:32:00,
2013-02-06 10:37:00,29.1,17.7,30.18,West,270,3.5,3.5,62,0.00,CLR,,0.00,WeatherDisplay:10.37,2013-02-06 15:37:00,
2013-02-06 10:42:00,28.8,16.6,30.18,West,270,9.2,9.2,60,0.00,CLR,,0.00,WeatherDisplay:10.37,2013-02-06 15:42:00,
2013-02-06 10:47:00,28.4,15.9,30.18,WNW,292,8.1,8.1,59,0.00,CLR,,0.00,WeatherDisplay:10.37,2013-02-06 15:47:00,
2013-02-06 10:52:00,28.4,16.3,30.18,West,270,4.6,4.8,60,0.00,CLR,,0.00,WeatherDisplay:10.37,2013-02-06 15:52:00,
2013-02-06 10:57:00,28.2,16.5,30.20,NNE,22,6.9,6.9,61,0.00,CLR,,0.00,WeatherDisplay:10.37,2013-02-06 15:57:00,
2013-02-06 11:02:00,26.8,15.5,30.20,NW,315,4.6,4.6,62,0.00,CLR,,0.00,WeatherDisplay:10.37,2013-02-06 16:02:00,
2013-02-06 11:07:00,26.6,15.3,30.20,NNE,22,6.9,6.9,62,0.00,CLR,,0.00,WeatherDisplay:10.37,2013-02-06 16:07:00,
2013-02-06 11:12:00,26.4,15.5,30.20,NNE,22,6.9,6.9,63,0.00,CLR,,0.00,WeatherDisplay:10.37,2013-02-06 16:12:00,
2013-02-06 11:17:00,26.8,15.9,30.21,North,0,6.9,6.9,63,0.00,CLR,,0.00,WeatherDisplay:10.37,2013-02-06 16:17:00,
2013-02-06 11:22:00,26.8,15.5,30.21,WNW,292,4.6,4.6,62,0.00,CLR,,0.00,WeatherDisplay:10.37,2013-02-06 16:22:00,
2013-02-06 11:27:00,26.8,15.5,30.21,NE,45,5.6,5.6,62,0.00,CLR,,0.00,WeatherDisplay:10.37,2013-02-06 16:27:00,
2013-02-06 11:32:00,26.6,14.9,30.21,NW,315,5.8,5.8,61,0.00,CLR,,0.00,WeatherDisplay:10.37,2013-02-06 16:32:00,
2013-02-06 11:37:00,26.4,15.2,30.22,ENE,68,3.5,3.5,62,0.00,CLR,,0.00,WeatherDisplay:10.37,2013-02-06 16:37:00,
2013-02-06 11:42:00,26.2,15.0,30.22,SSE,158,9.2,9.2,62,0.00,CLR,,0.00,WeatherDisplay:10.37,2013-02-06 16:42:00,
2013-02-06 11:47:00,26.1,14.8,30.22,NW,315,4.5,4.5,62,0.00,CLR,,0.00,WeatherDisplay:10.37,2013-02-06 16:47:00,
2013-02-06 11:52:00,25.9,14.6,30.22,WSW,248,5.8,5.8,62,0.00,CLR,,0.00,WeatherDisplay:10.37,2013-02-06 16:52:00,
2013-02-06 11:57:00,26.6,14.9,30.23,North,0,6.9,6.9,61,0.00,CLR,,0.00,WeatherDisplay:10.37,2013-02-06 16:57:00,
2013-02-06 12:02:00,26.6,14.9,30.23,WNW,292,3.5,3.5,61,0.00,CLR,,0.00,WeatherDisplay:10.37,2013-02-06 17:02:00,
2013-02-06 12:07:00,26.6,14.9,30.23,NW,315,9.2,9.2,61,0.00,CLR,,0.00,WeatherDisplay:10.37,2013-02-06 17:07:00,
2013-02-06 12:12:00,26.2,14.6,30.23,WNW,292,4.6,4.6,61,0.00,CLR,,0.00,WeatherDisplay:10.37,2013-02-06 17:12:00,
2013-02-06 12:17:00,26.4,14.8,30.23,SW,225,4.6,4.6,61,0.00,CLR,,0.00,WeatherDisplay:10.37,2013-02-06 17:17:00,
2013-02-06 12:22:00,26.2,14.6,30.23,NNW,338,3.5,3.5,61,0.00,CLR,,0.00,WeatherDisplay:10.37,2013-02-06 17:22:00,
2013-02-06 12:27:00,26.2,14.6,30.23,North,0,6.3,6.3,61,0.00,CLR,,0.00,WeatherDisplay:10.37,2013-02-06 17:27:00,
2013-02-06 12:33:00,26.2,14.6,30.23,West,270,6.9,6.9,61,0.00,CLR,,0.00,WeatherDisplay:10.37,2013-02-06 17:33:00,
2013-02-06 12:38:00,26.2,14.6,30.23,WSW,248,8.4,8.4,61,0.00,CLR,,0.00,WeatherDisplay:10.37,2013-02-06 17:38:00,
2013-02-06 12:43:00,26.1,14.4,30.23,WSW,248,3.5,3.5,61,0.00,CLR,,0.00,WeatherDisplay:10.37,2013-02-06 17:43:00,
2013-02-06 12:48:00,25.7,14.1,30.23,SW,225,4.6,4.6,61,0.00,CLR,,0.00,WeatherDisplay:10.37,2013-02-06 17:48:00,
2013-02-06 12:53:00,25.9,14.3,30.23,SW,225,3.5,3.5,61,0.00,CLR,,0.00,WeatherDisplay:10.37,2013-02-06 17:53:00,
2013-02-06 12:58:00,26.4,14.8,30.23,West,270,8.1,8.1,61,0.00,CLR,,0.00,WeatherDisplay:10.37,2013-02-06 17:58:00,
2013-02-06 13:03:00,26.4,14.4,30.23,NNW,338,9.2,9.2,60,0.00,CLR,,0.00,WeatherDisplay:10.37,2013-02-06 18:03:00,
2013-02-06 13:08:00,26.8,15.1,30.23,NNW,338,4.6,4.6,61,0.00,CLR,,0.00,WeatherDisplay:10.37,2013-02-06 18:08:00,
2013-02-06 13:13:00,27.0,14.9,30.23,West,270,3.5,3.5,60,0.00,CLR,,0.00,WeatherDisplay:10.37,2013-02-06 18:13:00,
2013-02-06 13:18:00,26.6,14.2,30.24,NW,315,4.6,4.6,59,0.00,CLR,,0.00,WeatherDisplay:10.37,2013-02-06 18:18:00,
2013-02-06 13:23:00,26.8,14.4,30.24,NNW,338,5.8,5.8,59,0.00,CLR,,0.00,WeatherDisplay:10.37,2013-02-06 18:23:00,
2013-02-06 13:28:00,27.0,14.9,30.24,NNE,22,5.8,5.8,60,0.00,CLR,,0.00,WeatherDisplay:10.37,2013-02-06 18:28:00,
2013-02-06 13:33:00,27.0,14.9,30.24,SW,225,6.9,6.9,60,0.00,CLR,,0.00,WeatherDisplay:10.37,2013-02-06 18:33:00,
2013-02-06 13:38:00,27.0,14.9,30.24,NW,315,3.5,4.0,60,0.00,CLR,,0.00,WeatherDisplay:10.37,2013-02-06 18:38:00,
2013-02-06 13:43:00,27.0,14.9,30.24,WSW,248,2.3,3.2,60,0.00,CLR,,0.00,WeatherDisplay:10.37,2013-02-06 18:43:00,
2013-02-06 13:48:00,27.3,15.2,30.24,NNE,22,5.8,5.8,60,0.00,CLR,,0.00,WeatherDisplay:10.37,2013-02-06 18:48:00,
2013-02-06 13:53:00,27.3,14.9,30.24,NNW,338,4.6,4.6,59,0.00,CLR,,0.00,WeatherDisplay:10.37,2013-02-06 18:53:00,
2013-02-06 13:58:00,27.7,15.2,30.24,SW,225,4.8,4.8,59,0.00,CLR,,0.00,WeatherDisplay:10.37,2013-02-06 18:58:00,
2013-02-06 14:03:00,27.9,15.4,30.24,West,270,3.7,3.7,59,0.00,CLR,,0.00,WeatherDisplay:10.37,2013-02-06 19:03:00,
2013-02-06 14:08:00,28.2,15.7,30.24,South,180,5.8,5.8,59,0.00,CLR,,0.00,WeatherDisplay:10.37,2013-02-06 19:08:00,
2013-02-06 14:13:00,28.2,15.7,30.24,SSE,158,3.5,3.5,59,0.00,CLR,,0.00,WeatherDisplay:10.37,2013-02-06 19:13:00,
2013-02-06 14:18:00,28.0,15.5,30.24,North,0,5.8,5.8,59,0.00,CLR,,0.00,WeatherDisplay:10.37,2013-02-06 19:18:00,
2013-02-06 14:23:00,27.7,15.2,30.24,NNE,22,4.6,4.6,59,0.00,CLR,,0.00,WeatherDisplay:10.37,2013-02-06 19:23:00,
2013-02-06 14:28:00,28.8,16.6,30.24,West,270,6.9,6.9,60,0.00,CLR,,0.00,WeatherDisplay:10.37,2013-02-06 19:28:00,
2013-02-06 14:33:00,28.9,16.8,30.24,West,270,5.8,5.8,60,0.00,CLR,,0.00,WeatherDisplay:10.37,2013-02-06 19:33:00,
2013-02-06 14:38:00,29.3,16.7,30.25,SW,225,4.6,4.6,59,0.00,CLR,,0.00,WeatherDisplay:10.37,2013-02-06 19:38:00,
2013-02-06 14:43:00,29.1,16.6,30.25,NNE,22,4.6,4.6,59,0.00,CLR,,0.00,WeatherDisplay:10.37,2013-02-06 19:43:00,
2013-02-06 14:48:00,27.7,15.2,30.25,WSW,248,9.5,9.5,59,0.00,CLR,,0.00,WeatherDisplay:10.37,2013-02-06 19:48:00,
2013-02-06 14:53:00,28.4,15.9,30.25,West,270,5.2,5.2,59,0.00,CLR,,0.00,WeatherDisplay:10.37,2013-02-06 19:53:00,
2013-02-06 14:58:00,27.7,15.6,30.25,SW,225,4.6,4.6,60,0.00,CLR,,0.00,WeatherDisplay:10.37,2013-02-06 19:58:00,
2013-02-06 15:03:00,28.0,15.9,30.25,WSW,248,3.5,3.5,60,0.00,CLR,,0.00,WeatherDisplay:10.37,2013-02-06 20:03:00,
2013-02-06 15:08:00,28.4,16.7,30.25,SSW,202,3.7,3.7,61,0.00,CLR,,0.00,WeatherDisplay:10.37,2013-02-06 20:08:00,
2013-02-06 15:13:00,28.8,16.6,30.25,SW,225,3.5,3.5,60,0.00,CLR,,0.00,WeatherDisplay:10.37,2013-02-06 20:13:00,
2013-02-06 15:18:00,30.0,17.8,30.26,South,180,3.5,3.6,60,0.00,CLR,,0.00,WeatherDisplay:10.37,2013-02-06 20:18:00,
2013-02-06 15:23:00,30.9,18.7,30.26,West,270,2.3,3.3,60,0.00,CLR,,0.00,WeatherDisplay:10.37,2013-02-06 20:23:00,
2013-02-06 15:28:00,30.6,17.9,30.26,West,270,5.8,5.8,59,0.00,CLR,,0.00,WeatherDisplay:10.37,2013-02-06 20:28:00,
2013-02-06 15:33:00,30.4,17.4,30.26,West,270,4.6,4.6,58,0.00,CLR,,0.00,WeatherDisplay:10.37,2013-02-06 20:33:00,
2013-02-06 15:38:00,30.0,17.4,30.26,NW,315,2.3,2.9,59,0.00,CLR,,0.00,WeatherDisplay:10.37,2013-02-06 20:38:00,
2013-02-06 15:43:00,29.7,17.1,30.26,WSW,248,3.5,3.5,59,0.00,CLR,,0.00,WeatherDisplay:10.37,2013-02-06 20:43:00,
2013-02-06 15:48:00,29.1,17.0,30.26,SW,225,5.8,5.8,60,0.00,CLR,,0.00,WeatherDisplay:10.37,2013-02-06 20:48:00,
2013-02-06 15:53:00,29.1,17.3,30.26,SSE,158,4.6,4.6,61,0.00,CLR,,0.00,WeatherDisplay:10.37,2013-02-06 20:53:00,
2013-02-06 15:58:00,29.1,17.0,30.27,WNW,292,4.6,4.6,60,0.00,CLR,,0.00,WeatherDisplay:10.37,2013-02-06 20:58:00,
2013-02-06 16:03:00,29.3,18.3,30.27,NNW,338,4.6,4.6,63,0.00,CLR,,0.00,WeatherDisplay:10.37,2013-02-06 21:03:00,
2013-02-06 16:08:00,29.1,17.7,30.27,WNW,292,4.6,4.6,62,0.00,CLR,,0.00,WeatherDisplay:10.37,2013-02-06 21:08:00,
2013-02-06 16:13:00,28.4,17.0,30.27,West,270,4.6,4.6,62,0.00,CLR,,0.00,WeatherDisplay:10.37,2013-02-06 21:13:00,
2013-02-06 16:18:00,27.7,17.1,30.27,West,270,2.3,2.5,64,0.00,CLR,,0.00,WeatherDisplay:10.37,2013-02-06 21:18:00,
2013-02-06 16:23:00,27.5,17.3,30.27,WSW,248,4.6,4.6,65,0.00,CLR,,0.00,WeatherDisplay:10.37,2013-02-06 21:23:00,
2013-02-06 16:28:00,27.0,16.8,30.27,West,270,2.6,2.6,65,0.00,CLR,,0.00,WeatherDisplay:10.37,2013-02-06 21:28:00,
2013-02-06 16:33:00,26.2,16.4,30.27,WSW,248,1.1,1.5,66,0.00,CLR,,0.00,WeatherDisplay:10.37,2013-02-06 21:33:00,
2013-02-06 16:38:00,25.9,16.1,30.29,SSW,202,3.5,3.5,66,0.00,CLR,,0.00,WeatherDisplay:10.37,2013-02-06 21:38:00,
2013-02-06 16:43:00,25.7,15.9,30.29,WNW,292,4.6,4.6,66,0.00,CLR,,0.00,WeatherDisplay:10.37,2013-02-06 21:43:00,
2013-02-06 16:48:00,25.5,15.7,30.29,West,270,2.3,2.3,66,0.00,CLR,,0.00,WeatherDisplay:10.37,2013-02-06 21:48:00,
2013-02-06 16:53:00,25.3,15.9,30.29,WSW,248,1.1,2.2,67,0.00,CLR,,0.00,WeatherDisplay:10.37,2013-02-06 21:53:00,
2013-02-06 16:58:00,25.0,15.6,30.27,West,270,2.3,2.3,67,0.00,CLR,,0.00,WeatherDisplay:10.37,2013-02-06 21:58:00,
2013-02-06 17:03:00,25.0,15.6,30.27,West,270,2.3,2.3,67,0.00,CLR,,0.00,WeatherDisplay:10.37,2013-02-06 22:03:00,
2013-02-06 17:08:00,24.8,15.7,30.27,SW,225,5.8,5.8,68,0.00,CLR,,0.00,WeatherDisplay:10.37,2013-02-06 22:08:00,
2013-02-06 17:13:00,24.6,15.6,30.27,West,270,2.3,2.6,68,0.00,CLR,,0.00,WeatherDisplay:10.37,2013-02-06 22:13:00,
2013-02-06 17:18:00,24.4,15.4,30.29,WSW,248,3.7,3.7,68,0.00,CLR,,0.00,WeatherDisplay:10.37,2013-02-06 22:18:00,
2013-02-06 17:23:00,24.1,15.0,30.29,WNW,292,2.3,2.3,68,0.00,CLR,,0.00,WeatherDisplay:10.37,2013-02-06 22:23:00,
2013-02-06 17:28:00,24.1,15.0,30.29,SSE,158,4.6,4.6,68,0.00,CLR,,0.00,WeatherDisplay:10.37,2013-02-06 22:28:00,
2013-02-06 17:33:00,23.9,15.2,30.29,SW,225,3.5,3.5,69,0.00,CLR,,0.00,WeatherDisplay:10.37,2013-02-06 22:33:00,
2013-02-06 17:38:00,24.1,15.4,30.29,SW,225,1.1,1.7,69,0.00,CLR,,0.00,WeatherDisplay:10.37,2013-02-06 22:38:00,
2013-02-06 17:43:00,24.1,15.4,30.29,SSW,202,1.1,1.7,69,0.00,CLR,,0.00,WeatherDisplay:10.37,2013-02-06 22:43:00,
2013-02-06 17:49:00,24.3,15.9,30.29,SW,225,3.5,3.5,70,0.00,CLR,,0.00,WeatherDisplay:10.37,2013-02-06 22:49:00,
2013-02-06 17:54:00,24.1,15.7,30.29,WSW,248,1.6,1.6,70,0.00,CLR,,0.00,WeatherDisplay:10.37,2013-02-06 22:54:00,
2013-02-06 17:59:00,24.1,15.7,30.29,NW,315,2.3,2.3,70,0.00,CLR,,0.00,WeatherDisplay:10.37,2013-02-06 22:59:00,
2013-02-06 18:04:00,23.9,15.5,30.29,West,270,2.3,2.3,70,0.00,CLR,,0.00,WeatherDisplay:10.37,2013-02-06 23:04:00,
2013-02-06 18:09:00,23.7,15.4,30.29,South,180,1.1,0.0,70,0.00,CLR,,0.00,WeatherDisplay:10.37,2013-02-06 23:09:00,
2013-02-06 18:14:00,23.4,15.0,30.29,NNE,22,1.1,1.1,70,0.00,CLR,,0.00,WeatherDisplay:10.37,2013-02-06 23:14:00,
2013-02-06 18:19:00,23.2,15.2,30.30,South,180,0.0,0.0,71,0.00,CLR,,0.00,WeatherDisplay:10.37,2013-02-06 23:19:00,
2013-02-06 18:24:00,23.0,15.0,30.30,South,180,2.3,2.3,71,0.00,CLR,,0.00,WeatherDisplay:10.37,2013-02-06 23:24:00,
2013-02-06 18:29:00,22.8,14.8,30.30,WNW,292,1.1,1.1,71,0.00,CLR,,0.00,WeatherDisplay:10.37,2013-02-06 23:29:00,
2013-02-06 18:34:00,22.6,14.6,30.30,SE,135,1.1,1.1,71,0.00,CLR,,0.00,WeatherDisplay:10.37,2013-02-06 23:34:00,
2013-02-06 18:39:00,22.6,15.0,30.30,ENE,68,0.0,0.0,72,0.00,CLR,,0.00,WeatherDisplay:10.37,2013-02-06 23:39:00,
2013-02-06 18:44:00,22.6,15.0,30.30,South,180,0.0,0.0,72,0.00,CLR,,0.00,WeatherDisplay:10.37,2013-02-06 23:44:00,
2013-02-06 18:49:00,22.6,15.0,30.30,WSW,248,0.0,1.3,72,0.00,CLR,,0.00,WeatherDisplay:10.37,2013-02-06 23:49:00,
2013-02-06 18:54:00,22.5,14.8,30.30,SW,225,0.0,0.0,72,0.00,CLR,,0.00,WeatherDisplay:10.37,2013-02-06 23:54:00,
2013-02-06 18:59:00,22.3,14.6,30.31,NW,315,0.0,0.0,72,0.00,CLR,,0.00,WeatherDisplay:10.37,2013-02-06 23:59:00,
2013-02-06 19:04:00,22.3,14.6,30.31,West,270,0.0,0.0,72,0.00,CLR,,0.00,WeatherDisplay:10.37,2013-02-07 00:04:00,
2013-02-06 19:09:00,22.5,15.1,30.31,WSW,248,0.0,0.0,73,0.00,CLR,,0.00,WeatherDisplay:10.37,2013-02-07 00:09:00,
2013-02-06 19:14:00,22.6,15.3,30.31,West,270,0.0,0.1,73,0.00,CLR,,0.00,WeatherDisplay:10.37,2013-02-07 00:14:00,
2013-02-06 19:19:00,23.2,15.8,30.32,West,270,1.3,1.3,73,0.00,CLR,,0.00,WeatherDisplay:10.37,2013-02-07 00:19:00,
2013-02-06 19:24:00,23.4,16.0,30.32,WSW,248,1.1,1.1,73,0.00,CLR,,0.00,WeatherDisplay:10.37,2013-02-07 00:24:00,
2013-02-06 19:29:00,23.5,16.2,30.32,WSW,248,1.6,1.6,73,0.00,CLR,,0.00,WeatherDisplay:10.37,2013-02-07 00:29:00,
2013-02-06 19:34:00,23.5,15.8,30.32,WNW,292,2.3,2.3,72,0.00,CLR,,0.00,WeatherDisplay:10.37,2013-02-07 00:34:00,
2013-02-06 19:39:00,23.7,16.0,30.34,West,270,1.1,1.1,72,0.00,CLR,,0.00,WeatherDisplay:10.37,2013-02-07 00:39:00,
2013-02-06 19:44:00,23.5,15.8,30.34,South,180,0.0,0.0,72,0.00,CLR,,0.00,WeatherDisplay:10.37,2013-02-07 00:44:00,
2013-02-06 19:49:00,23.5,15.8,30.34,East,90,0.0,0.0,72,0.00,CLR,,0.00,WeatherDisplay:10.37,2013-02-07 00:49:00,
2013-02-06 19:54:00,23.7,16.3,30.34,SSE,158,0.0,0.0,73,0.00,CLR,,0.00,WeatherDisplay:10.37,2013-02-07 00:54:00,
2013-02-06 19:59:00,23.7,16.3,30.35,South,180,0.0,0.0,73,0.00,CLR,,0.00,WeatherDisplay:10.37,2013-02-07 00:59:00,
2013-02-06 20:04:00,23.9,16.5,30.35,SW,225,0.0,0.0,73,0.00,CLR,,0.00,WeatherDisplay:10.37,2013-02-07 01:04:00,
2013-02-06 20:09:00,24.1,16.7,30.35,SSE,158,0.0,0.0,73,0.00,CLR,,0.00,WeatherDisplay:10.37,2013-02-07 01:09:00,
2013-02-06 20:14:00,24.1,16.7,30.35,South,180,1.1,1.4,73,0.00,CLR,,0.00,WeatherDisplay:10.37,2013-02-07 01:14:00,
2013-02-06 20:19:00,24.1,16.7,30.34,SSE,158,1.1,3.1,73,0.00,CLR,,0.00,WeatherDisplay:10.37,2013-02-07 01:19:00,
2013-02-06 20:24:00,24.1,16.7,30.34,South,180,0.0,0.0,73,0.00,CLR,,0.00,WeatherDisplay:10.37,2013-02-07 01:24:00,
2013-02-06 20:29:00,23.9,16.2,30.34,SSE,158,1.1,1.1,72,0.00,CLR,,0.00,WeatherDisplay:10.37,2013-02-07 01:29:00,
2013-02-06 20:34:00,23.7,16.0,30.34,South,180,0.0,0.0,72,0.00,CLR,,0.00,WeatherDisplay:10.37,2013-02-07 01:34:00,
2013-02-06 20:39:00,23.7,16.0,30.34,SW,225,0.0,0.0,72,0.00,CLR,,0.00,WeatherDisplay:10.37,2013-02-07 01:39:00,
2013-02-06 20:44:00,23.7,16.0,30.34,SSW,202,1.1,1.1,72,0.00,CLR,,0.00,WeatherDisplay:10.37,2013-02-07 01:44:00,
2013-02-06 20:49:00,23.5,15.8,30.34,SE,135,1.1,1.1,72,0.00,CLR,,0.00,WeatherDisplay:10.37,2013-02-07 01:49:00,
2013-02-06 20:54:00,23.4,15.7,30.34,South,180,0.0,0.0,72,0.00,CLR,,0.00,WeatherDisplay:10.37,2013-02-07 01:54:00,
2013-02-06 20:59:00,23.2,15.5,30.34,SSW,202,0.0,0.0,72,0.00,CLR,,0.00,WeatherDisplay:10.37,2013-02-07 01:59:00,
2013-02-06 21:04:00,22.8,15.1,30.34,WSW,248,0.0,0.0,72,0.00,CLR,,0.00,WeatherDisplay:10.37,2013-02-07 02:04:00,
2013-02-06 21:09:00,22.6,15.3,30.34,NW,315,0.0,0.0,73,0.00,CLR,,0.00,WeatherDisplay:10.37,2013-02-07 02:09:00,
2013-02-06 21:14:00,22.5,15.1,30.34,ENE,68,0.0,0.0,73,0.00,CLR,,0.00,WeatherDisplay:10.37,2013-02-07 02:14:00,
2013-02-06 21:19:00,22.3,14.9,30.34,SE,135,0.0,0.0,73,0.00,CLR,,0.00,WeatherDisplay:10.37,2013-02-07 02:19:00,
2013-02-06 21:24:00,22.1,14.8,30.34,South,180,0.0,0.0,73,0.00,CLR,,0.00,WeatherDisplay:10.37,2013-02-07 02:24:00,
2013-02-06 21:29:00,21.9,14.6,30.34,ESE,112,0.0,0.0,73,0.00,CLR,,0.00,WeatherDisplay:10.37,2013-02-07 02:29:00,
2013-02-06 21:34:00,21.9,14.6,30.34,ESE,112,0.0,0.0,73,0.00,CLR,,0.00,WeatherDisplay:10.37,2013-02-07 02:34:00,
2013-02-06 21:39:00,21.7,14.4,30.34,North,0,0.0,0.0,73,0.00,CLR,,0.00,WeatherDisplay:10.37,2013-02-07 02:39:00,
2013-02-06 21:44:00,21.2,13.9,30.34,SSE,158,0.0,0.0,73,0.00,CLR,,0.00,WeatherDisplay:10.37,2013-02-07 02:44:00,
2013-02-06 21:49:00,21.0,14.0,30.34,SW,225,0.0,0.0,74,0.00,CLR,,0.00,WeatherDisplay:10.37,2013-02-07 02:49:00,
2013-02-06 21:54:00,20.8,13.5,30.34,SSW,202,1.1,0.0,73,0.00,CLR,,0.00,WeatherDisplay:10.37,2013-02-07 02:54:00,
2013-02-06 21:59:00,20.8,13.9,30.34,SSW,202,1.1,1.1,74,0.00,CLR,,0.00,WeatherDisplay:10.37,2013-02-07 02:59:00,
2013-02-06 22:04:00,20.8,13.9,30.34,SE,135,1.1,1.1,74,0.00,CLR,,0.00,WeatherDisplay:10.37,2013-02-07 03:04:00,
2013-02-06 22:09:00,20.8,14.2,30.34,South,180,0.0,0.1,75,0.00,CLR,,0.00,WeatherDisplay:10.37,2013-02-07 03:09:00,
2013-02-06 22:14:00,20.7,14.0,30.34,SSE,158,0.0,0.0,75,0.00,CLR,,0.00,WeatherDisplay:10.37,2013-02-07 03:14:00,
2013-02-06 22:19:00,20.5,13.8,30.34,South,180,0.0,0.0,75,0.00,CLR,,0.00,WeatherDisplay:10.37,2013-02-07 03:19:00,
2013-02-06 22:24:00,20.1,13.2,30.34,SSE,158,0.0,0.0,74,0.00,CLR,,0.00,WeatherDisplay:10.37,2013-02-07 03:24:00,
2013-02-06 22:29:00,19.8,13.1,30.34,South,180,0.0,0.0,75,0.00,CLR,,0.00,WeatherDisplay:10.37,2013-02-07 03:29:00,
2013-02-06 22:34:00,19.6,12.6,30.34,West,270,0.0,0.0,74,0.00,CLR,,0.00,WeatherDisplay:10.37,2013-02-07 03:34:00,
2013-02-06 22:39:00,19.2,12.3,30.36,SSE,158,0.0,0.0,74,0.00,CLR,,0.00,WeatherDisplay:10.37,2013-02-07 03:39:00,
2013-02-06 22:44:00,19.0,12.4,30.36,South,180,0.0,0.0,75,0.00,CLR,,0.00,WeatherDisplay:10.37,2013-02-07 03:44:00,
2013-02-06 22:49:00,18.9,12.2,30.36,South,180,0.0,0.0,75,0.00,CLR,,0.00,WeatherDisplay:10.37,2013-02-07 03:49:00,
2013-02-06 22:54:00,18.7,12.1,30.36,South,180,0.0,0.0,75,0.00,CLR,,0.00,WeatherDisplay:10.37,2013-02-07 03:54:00,
2013-02-06 22:59:00,18.3,11.7,30.34,SSE,158,0.0,0.0,75,0.00,CLR,,0.00,WeatherDisplay:10.37,2013-02-07 03:59:00,
2013-02-06 23:04:00,18.1,11.5,30.34,SE,135,0.0,0.0,75,0.00,CLR,,0.00,WeatherDisplay:10.37,2013-02-07 04:04:00,
2013-02-06 23:09:00,17.8,11.2,30.34,South,180,0.0,0.0,75,0.00,CLR,,0.00,WeatherDisplay:10.37,2013-02-07 04:09:00,
2013-02-06 23:14:00,17.6,11.0,30.34,South,180,0.0,0.0,75,0.00,CLR,,0.00,WeatherDisplay:10.37,2013-02-07 04:14:00,
2013-02-06 23:19:00,17.4,11.1,30.34,SE,135,0.0,0.0,76,0.00,CLR,,0.00,WeatherDisplay:10.37,2013-02-07 04:19:00,
2013-02-06 23:24:00,17.4,11.1,30.34,SE,135,1.1,1.1,76,0.00,CLR,,0.00,WeatherDisplay:10.37,2013-02-07 04:24:00,
2013-02-06 23:29:00,17.4,11.1,30.34,SE,135,1.1,1.1,76,0.00,CLR,,0.00,WeatherDisplay:10.37,2013-02-07 04:29:00,
2013-02-06 23:34:00,17.2,11.0,30.34,SE,135,0.0,0.3,76,0.00,CLR,,0.00,WeatherDisplay:10.37,2013-02-07 04:34:00,
2013-02-06 23:39:00,16.9,10.6,30.34,ESE,112,0.0,0.0,76,0.00,CLR,,0.00,WeatherDisplay:10.37,2013-02-07 04:39:00,
2013-02-06 23:45:00,16.9,10.6,30.34,ESE,112,0.0,0.0,76,0.00,CLR,,0.00,WeatherDisplay:10.37,2013-02-07 04:45:00,
2013-02-06 23:50:00,17.1,11.1,30.34,SE,135,2.3,2.3,77,0.00,CLR,,0.00,WeatherDisplay:10.37,2013-02-07 04:50:00,
2013-02-06 23:55:00,17.1,11.1,30.34,SE,135,2.3,2.3,77,0.00,CLR,,0.00,WeatherDisplay:10.37,2013-02-07 04:55:00,